»·PEaware :: UAL20 KIAH-EHAM

UAL20 :: KIAH-EHAM

FLIGHT INFORMATION

Flight Status: Arrived
Operator:
United Airlines
More flights by this operator :: More flights under this callsign
Pilot: Drew L. (13237)
Aircraft: Unknown
(B788)
More flights by this aircraft type
Origin: KIAH G Bush Intercontinental/Houst
United States
Destination: EHAM Schiphol
Netherlands
More flights between these airports :: More routes between these airports
Route: LURIC5 HAWES MEM BNA BKW LDN EMI MXE JFK ACK WHALE/N0494F410 N75A SUPRY/M086F400 NATV ATSUR/M086F410 LULOX/N0496F410 P69 DAWLY UL620 MID UM185 BPK Q295 CLN UL620 REDFA REDF1A
File this flight plan on PilotEdge
Remarks: PBN / A1B1C1D1L1O1S2 DOF / 180603 REG / N888SB EET / KZFW0020 KZME0038 KZID0124 KZDC0152 KZNY0215 KZBW0237 CZQM0313 CZQX0410 46N050W0443 48N040W0531 EGGX0617 50N020W0704 EGTT0801 EHAA0856 OPR / UAL PER / D RALT / CYJT LPPD RMK / TCAS SIMBRIEF
Altitude:
(Current/Filed)
39,000ft
Speed:
(Current/Filed)
490kts
Departed: 03-Jun-18 02:13 AM
Arrived: 03-Jun-18 11:46 AM
Distance/Time
Traveled:
4344nm/9:33
Distance/Time
To Go:
Arrived

Flight Plot

Page will automatically refresh every two minutes.

Flight plan parsing failed; only flown route is shown


Map Options




Map Legend


Flown Route
Filed Route
Departure Airport
Arrival Airport
Navaid (VOR, NDB)
Fix

Horizontal Profiles

Position Reports

Time Latitude Longitude Heading Altitude Ground
Speed
03-Jun-18 01:42 29.983745 -95.332578 29 110ft 0kts
03-Jun-18 01:43 29.983745 -95.332578 29 110ft 0kts
03-Jun-18 01:44 29.983745 -95.332578 29 110ft 0kts
03-Jun-18 01:45 29.983745 -95.332578 29 110ft 0kts
03-Jun-18 01:46 29.983745 -95.332578 29 110ft 0kts
03-Jun-18 01:47 29.983745 -95.332578 29 110ft 0kts
03-Jun-18 01:48 29.983745 -95.332578 29 110ft 0kts
03-Jun-18 01:49 29.983745 -95.332578 29 110ft 0kts
03-Jun-18 01:50 29.983745 -95.332578 29 110ft 0kts
03-Jun-18 01:51 29.983745 -95.332578 29 110ft 0kts
03-Jun-18 01:52 29.983745 -95.332578 29 110ft 0kts
03-Jun-18 01:53 29.983745 -95.332578 29 110ft 0kts
03-Jun-18 01:54 29.983745 -95.332578 29 110ft 0kts
03-Jun-18 01:55 29.983745 -95.332578 29 110ft 0kts
03-Jun-18 01:56 29.983745 -95.332578 29 110ft 0kts
03-Jun-18 01:57 29.983745 -95.332578 29 110ft 0kts
03-Jun-18 01:58 29.983745 -95.332578 29 110ft 0kts
03-Jun-18 01:59 29.983745 -95.332578 29 110ft 0kts
03-Jun-18 02:00 29.983745 -95.332578 29 111ft 0kts
03-Jun-18 02:01 29.983745 -95.332578 29 111ft 0kts
03-Jun-18 02:02 29.983745 -95.332578 29 111ft 0kts
03-Jun-18 02:03 29.983745 -95.332578 29 111ft 0kts
03-Jun-18 02:04 29.983314 -95.332784 8 111ft 2kts
03-Jun-18 02:05 29.983005 -95.332531 269 111ft 2kts
03-Jun-18 02:06 29.983005 -95.332494 269 111ft 0kts
03-Jun-18 02:07 29.983005 -95.332499 269 111ft 0kts
03-Jun-18 02:08 29.983072 -95.336022 273 111ft 15kts
03-Jun-18 02:09 29.983749 -95.341671 271 110ft 19kts
03-Jun-18 02:10 29.983784 -95.348642 270 110ft 23kts
03-Jun-18 02:11 29.987094 -95.354026 331 110ft 32kts
03-Jun-18 02:12 29.987475 -95.357553 162 110ft 10kts
03-Jun-18 02:13 29.959648 -95.340560 152 992ft 179kts
03-Jun-18 02:14 29.914049 -95.314485 176 4532ft 197kts
03-Jun-18 02:15 29.880230 -95.362037 264 6200ft 222kts
03-Jun-18 02:16 29.920858 -95.415134 329 9191ft 244kts
03-Jun-18 02:17 29.984676 -95.453114 333 11843ft 288kts
03-Jun-18 02:18 30.069336 -95.442603 44 13712ft 362kts
03-Jun-18 02:19 30.128259 -95.338940 53 16174ft 397kts
03-Jun-18 02:20 30.190853 -95.231813 53 19003ft 411kts
03-Jun-18 02:21 30.260882 -95.125009 41 21388ft 423kts
03-Jun-18 02:22 30.357262 -95.043692 32 23510ft 435kts
03-Jun-18 02:23 30.458968 -94.964017 30 25328ft 449kts
03-Jun-18 02:24 30.564755 -94.883087 30 27087ft 463kts
03-Jun-18 02:25 30.674104 -94.799049 30 28906ft 478kts
03-Jun-18 02:26 30.786801 -94.712202 30 30877ft 494kts
03-Jun-18 02:27 30.902027 -94.623115 30 33594ft 493kts
03-Jun-18 02:28 31.015572 -94.535141 29 36201ft 489kts
03-Jun-18 02:29 31.127959 -94.447919 29 38412ft 483kts
03-Jun-18 02:30 31.240203 -94.360505 29 39008ft 484kts
03-Jun-18 02:31 31.352280 -94.272938 29 39011ft 485kts
03-Jun-18 02:32 31.464425 -94.185068 29 39018ft 486kts
03-Jun-18 02:33 31.577153 -94.096466 29 39006ft 487kts
03-Jun-18 02:34 31.689450 -94.007954 29 39008ft 487kts
03-Jun-18 02:35 31.800970 -93.917714 32 39003ft 488kts
03-Jun-18 02:36 31.908427 -93.819314 33 38992ft 489kts
03-Jun-18 02:37 32.015640 -93.721191 33 38974ft 489kts
03-Jun-18 02:38 32.123012 -93.622577 33 38987ft 490kts
03-Jun-18 02:39 32.230690 -93.523344 34 38972ft 490kts
03-Jun-18 02:40 32.338172 -93.424023 34 38973ft 491kts
03-Jun-18 02:41 32.445628 -93.324391 34 38991ft 491kts
03-Jun-18 02:42 32.553472 -93.224093 34 39004ft 492kts
03-Jun-18 02:43 32.661004 -93.123776 34 39002ft 493kts
03-Jun-18 02:44 32.768619 -93.023055 34 39018ft 493kts
03-Jun-18 02:45 32.876659 -92.921625 35 39014ft 494kts
03-Jun-18 02:46 32.981421 -92.815917 43 39005ft 497kts
03-Jun-18 02:47 33.073437 -92.691668 45 39011ft 500kts
03-Jun-18 02:48 33.165692 -92.567756 45 39002ft 501kts
03-Jun-18 02:49 33.257970 -92.443129 45 39003ft 502kts
03-Jun-18 02:50 33.350647 -92.317567 46 39017ft 503kts
03-Jun-18 02:51 33.443081 -92.191880 46 39012ft 504kts
03-Jun-18 02:52 33.535597 -92.065641 46 39004ft 505kts
03-Jun-18 02:53 33.628455 -91.938481 46 39012ft 506kts
03-Jun-18 02:54 33.721006 -91.811280 46 39014ft 506kts
03-Jun-18 02:55 33.813358 -91.683936 46 39000ft 506kts
03-Jun-18 02:56 33.890609 -91.577025 46 39009ft 506kts
03-Jun-18 02:57 33.982680 -91.449220 46 39003ft 505kts
03-Jun-18 02:58 34.074659 -91.321056 47 38995ft 506kts
03-Jun-18 02:59 34.166990 -91.191963 47 39007ft 507kts
03-Jun-18 03:00 34.258788 -91.063124 47 39007ft 506kts
03-Jun-18 03:01 34.350436 -90.934023 47 38999ft 506kts
03-Jun-18 03:02 34.442133 -90.804381 47 39007ft 505kts
03-Jun-18 03:03 34.533200 -90.675162 47 39012ft 504kts
03-Jun-18 03:04 34.624281 -90.545445 47 39000ft 504kts
03-Jun-18 03:05 34.714981 -90.415790 47 38993ft 504kts
03-Jun-18 03:06 34.805589 -90.285782 47 39001ft 505kts
03-Jun-18 03:07 34.896520 -90.154825 48 38971ft 506kts
03-Jun-18 03:08 34.987288 -90.023395 50 38963ft 508kts
03-Jun-18 03:09 35.055655 -89.872212 66 38955ft 513kts
03-Jun-18 03:10 35.112123 -89.711333 65 38964ft 516kts
03-Jun-18 03:11 35.169233 -89.550308 65 38965ft 517kts
03-Jun-18 03:12 35.226258 -89.388708 65 38943ft 519kts
03-Jun-18 03:13 35.283354 -89.226026 65 38962ft 520kts
03-Jun-18 03:14 35.340198 -89.063240 65 38955ft 521kts
03-Jun-18 03:15 35.397141 -88.899297 66 38946ft 522kts
03-Jun-18 03:16 35.453811 -88.735289 65 38953ft 524kts
03-Jun-18 03:17 35.510407 -88.570578 66 38947ft 525kts
03-Jun-18 03:18 35.567170 -88.404473 66 38932ft 527kts
03-Jun-18 03:19 35.623739 -88.238095 66 38936ft 529kts
03-Jun-18 03:20 35.680274 -88.070892 66 38933ft 531kts
03-Jun-18 03:21 35.736857 -87.902600 66 38924ft 532kts
03-Jun-18 03:22 35.793129 -87.734306 66 38929ft 532kts
03-Jun-18 03:23 35.849131 -87.565877 66 38939ft 531kts
03-Jun-18 03:24 35.904984 -87.396944 66 38929ft 530kts
03-Jun-18 03:25 35.960241 -87.228869 66 38923ft 529kts
03-Jun-18 03:26 36.015173 -87.060856 66 38933ft 528kts
03-Jun-18 03:27 36.070114 -86.891831 66 38913ft 529kts
03-Jun-18 03:28 36.124616 -86.723196 66 38922ft 528kts
03-Jun-18 03:29 36.179330 -86.554401 65 38927ft 526kts
03-Jun-18 03:30 36.233567 -86.386578 65 38899ft 525kts
03-Jun-18 03:31 36.287405 -86.219026 65 38896ft 523kts
03-Jun-18 03:32 36.341073 -86.051033 66 38900ft 523kts
03-Jun-18 03:33 36.394295 -85.883447 65 38927ft 522kts
03-Jun-18 03:34 36.447210 -85.715917 65 38918ft 521kts
03-Jun-18 03:35 36.500020 -85.547723 65 38945ft 521kts
03-Jun-18 03:36 36.552390 -85.379957 65 38953ft 521kts
03-Jun-18 03:37 36.604535 -85.211919 65 38946ft 521kts
03-Jun-18 03:38 36.656520 -85.043403 65 38944ft 520kts
03-Jun-18 03:39 36.708037 -84.875394 65 38953ft 519kts
03-Jun-18 03:40 36.759264 -84.707403 65 38959ft 518kts
03-Jun-18 03:41 36.810262 -84.539117 65 38946ft 517kts
03-Jun-18 03:42 36.860769 -84.371458 65 38944ft 516kts
03-Jun-18 03:43 36.911195 -84.203089 65 38952ft 516kts
03-Jun-18 03:44 36.961131 -84.035266 65 38947ft 515kts
03-Jun-18 03:45 37.010729 -83.867645 65 38945ft 512kts
03-Jun-18 03:46 37.059947 -83.700263 65 38940ft 511kts
03-Jun-18 03:47 37.108660 -83.533601 65 38947ft 510kts
03-Jun-18 03:48 37.157078 -83.366948 65 38956ft 509kts
03-Jun-18 03:49 37.205322 -83.199858 65 38943ft 508kts
03-Jun-18 03:50 37.253081 -83.033432 65 38955ft 507kts
03-Jun-18 03:51 37.300476 -82.867249 65 38968ft 505kts
03-Jun-18 03:52 37.347642 -82.700850 65 38966ft 504kts
03-Jun-18 03:53 37.394266 -82.535299 65 38967ft 502kts
03-Jun-18 03:54 37.440494 -82.370232 65 38997ft 500kts
03-Jun-18 03:55 37.486524 -82.204787 65 38986ft 499kts
03-Jun-18 03:56 37.532074 -82.040050 66 38987ft 498kts
03-Jun-18 03:57 37.577457 -81.874843 66 39000ft 497kts
03-Jun-18 03:58 37.622402 -81.710250 66 38999ft 497kts
03-Jun-18 03:59 37.667116 -81.545469 66 38992ft 497kts
03-Jun-18 04:00 37.711759 -81.379882 66 38990ft 497kts
03-Jun-18 04:01 37.756052 -81.214539 67 38972ft 498kts
03-Jun-18 04:02 37.807097 -81.052364 60 38962ft 497kts
03-Jun-18 04:03 37.868116 -80.895374 60 38967ft 496kts
03-Jun-18 04:04 37.928168 -80.738158 61 38975ft 496kts
03-Jun-18 04:05 37.988067 -80.580645 61 38961ft 497kts
03-Jun-18 04:06 38.048074 -80.422029 62 38964ft 497kts
03-Jun-18 04:07 38.107669 -80.263698 62 38979ft 498kts
03-Jun-18 04:08 38.167139 -80.104858 62 38976ft 498kts
03-Jun-18 04:09 38.226606 -79.945199 62 38978ft 499kts
03-Jun-18 04:10 38.285696 -79.785726 62 38983ft 499kts
03-Jun-18 04:11 38.344791 -79.625375 62 38953ft 499kts
03-Jun-18 04:12 38.403511 -79.465192 63 38941ft 499kts
03-Jun-18 04:13 38.461988 -79.304819 63 38933ft 499kts
03-Jun-18 04:14 38.520522 -79.143400 63 38915ft 499kts
03-Jun-18 04:15 38.578245 -78.983409 63 38907ft 495kts
03-Jun-18 04:16 38.635499 -78.823830 63 38893ft 494kts
03-Jun-18 04:17 38.692692 -78.663559 64 38889ft 494kts
03-Jun-18 04:18 38.749586 -78.503264 64 38874ft 495kts
03-Jun-18 04:19 38.806253 -78.342719 65 38880ft 495kts
03-Jun-18 04:20 38.866951 -78.183694 59 38888ft 495kts
03-Jun-18 04:21 38.943874 -78.037329 54 38880ft 495kts
03-Jun-18 04:22 39.021271 -77.890472 55 38875ft 496kts
03-Jun-18 04:23 39.098633 -77.743345 55 38877ft 497kts
03-Jun-18 04:24 39.175880 -77.595762 55 38868ft 498kts
03-Jun-18 04:25 39.253321 -77.447103 55 38870ft 498kts
03-Jun-18 04:26 39.330334 -77.298560 55 38898ft 498kts
03-Jun-18 04:27 39.407210 -77.149620 56 38895ft 499kts
03-Jun-18 04:28 39.484251 -76.999658 56 38920ft 500kts
03-Jun-18 04:29 39.541968 -76.835956 67 38910ft 501kts
03-Jun-18 04:30 39.596717 -76.669965 66 38920ft 502kts
03-Jun-18 04:31 39.651321 -76.502583 66 38933ft 503kts
03-Jun-18 04:32 39.705688 -76.335089 66 38938ft 504kts
03-Jun-18 04:33 39.759953 -76.166885 67 38976ft 505kts
03-Jun-18 04:34 39.814181 -75.997780 67 38983ft 506kts
03-Jun-18 04:35 39.868073 -75.828689 67 38995ft 506kts
03-Jun-18 04:36 39.923011 -75.659997 64 38995ft 506kts
03-Jun-18 04:37 39.986135 -75.495362 62 38995ft 506kts
03-Jun-18 04:38 40.049234 -75.331347 62 39020ft 506kts
03-Jun-18 04:39 40.112293 -75.166779 62 39034ft 505kts
03-Jun-18 04:40 40.174799 -75.002658 62 39030ft 505kts
03-Jun-18 04:41 40.237052 -74.838406 62 39022ft 505kts
03-Jun-18 04:42 40.299322 -74.673124 62 39030ft 505kts
03-Jun-18 04:43 40.361156 -74.508064 62 39040ft 505kts
03-Jun-18 04:44 40.422814 -74.342548 62 39048ft 506kts
03-Jun-18 04:45 40.484434 -74.176221 62 39073ft 506kts
03-Jun-18 04:46 40.545730 -74.009784 62 39078ft 506kts
03-Jun-18 04:47 40.606691 -73.843330 62 39079ft 505kts
03-Jun-18 04:48 40.653134 -73.669111 76 39083ft 506kts
03-Jun-18 04:49 40.686497 -73.489395 74 39067ft 505kts
03-Jun-18 04:50 40.720260 -73.309352 74 39056ft 505kts
03-Jun-18 04:51 40.753632 -73.129845 74 39069ft 504kts
03-Jun-18 04:52 40.786672 -72.950599 74 39079ft 503kts
03-Jun-18 04:53 40.819466 -72.770861 74 39076ft 502kts
03-Jun-18 04:54 40.851851 -72.591702 74 39106ft 502kts
03-Jun-18 04:55 40.883967 -72.412344 74 39098ft 502kts
03-Jun-18 04:56 40.915875 -72.232358 75 39093ft 501kts
03-Jun-18 04:57 40.947362 -72.053048 75 39109ft 501kts
03-Jun-18 04:58 40.978548 -71.873671 74 39122ft 500kts
03-Jun-18 04:59 41.009517 -71.693681 75 39109ft 500kts
03-Jun-18 05:00 41.040072 -71.514544 75 39109ft 499kts
03-Jun-18 05:01 41.070415 -71.334697 75 39115ft 499kts
03-Jun-18 05:02 41.100397 -71.155162 75 39105ft 499kts
03-Jun-18 05:03 41.130043 -70.975891 75 39108ft 499kts
03-Jun-18 05:04 41.159544 -70.795607 75 39117ft 498kts
03-Jun-18 05:05 41.188621 -70.615856 75 39109ft 498kts
03-Jun-18 05:06 41.217439 -70.436133 75 39105ft 498kts
03-Jun-18 05:07 41.246053 -70.255685 75 39100ft 498kts
03-Jun-18 05:08 41.274946 -70.076141 72 39086ft 497kts
03-Jun-18 05:09 41.320726 -69.903394 62 39087ft 495kts
03-Jun-18 05:10 41.374857 -69.734946 64 39106ft 493kts
03-Jun-18 05:11 41.427896 -69.566891 64 39108ft 493kts
03-Jun-18 05:12 41.480862 -69.398107 64 39103ft 493kts
03-Jun-18 05:13 41.533470 -69.229370 64 39120ft 493kts
03-Jun-18 05:14 41.585819 -69.060445 64 39123ft 493kts
03-Jun-18 05:15 41.629455 -68.918787 64 39110ft 493kts
03-Jun-18 05:16 41.681417 -68.749060 64 39114ft 494kts
03-Jun-18 05:17 41.733130 -68.579172 64 39135ft 493kts
03-Jun-18 05:18 41.784758 -68.408369 64 39126ft 493kts
03-Jun-18 05:19 41.835932 -68.237986 64 39120ft 493kts
03-Jun-18 05:20 41.886804 -68.067505 64 39129ft 493kts
03-Jun-18 05:21 41.937594 -67.896168 64 39123ft 493kts
03-Jun-18 05:22 41.987934 -67.725224 64 39113ft 493kts
03-Jun-18 05:23 42.038059 -67.553881 64 39136ft 493kts
03-Jun-18 05:24 42.088052 -67.381839 64 39119ft 492kts
03-Jun-18 05:25 42.137619 -67.210122 64 39115ft 492kts
03-Jun-18 05:26 42.187127 -67.037533 63 39123ft 492kts
03-Jun-18 05:27 42.237884 -66.866303 62 39124ft 492kts
03-Jun-18 05:28 42.288918 -66.695277 62 39111ft 492kts
03-Jun-18 05:29 42.339990 -66.522894 62 39116ft 493kts
03-Jun-18 05:30 42.390600 -66.350915 63 39123ft 493kts
03-Jun-18 05:31 42.441066 -66.178223 63 39110ft 494kts
03-Jun-18 05:32 42.491436 -66.004792 63 39107ft 494kts
03-Jun-18 05:33 42.541471 -65.831228 63 39112ft 495kts
03-Jun-18 05:34 42.591278 -65.657351 63 39104ft 495kts
03-Jun-18 05:35 42.640970 -65.482614 63 39100ft 495kts
03-Jun-18 05:36 42.690277 -65.308049 63 39110ft 495kts
03-Jun-18 05:37 42.739487 -65.132621 62 39110ft 496kts
03-Jun-18 05:38 42.788313 -64.957279 62 39100ft 496kts
03-Jun-18 05:39 42.836928 -64.781497 62 39071ft 497kts
03-Jun-18 05:40 42.885488 -64.604627 62 39010ft 497kts
03-Jun-18 05:41 42.933690 -64.427822 63 38985ft 498kts
03-Jun-18 05:42 42.981605 -64.250733 63 38976ft 498kts
03-Jun-18 05:43 43.029508 -64.072453 63 38956ft 498kts
03-Jun-18 05:44 43.076974 -63.894531 63 38930ft 500kts
03-Jun-18 05:45 43.124401 -63.715380 63 38931ft 502kts
03-Jun-18 05:46 43.171826 -63.534931 63 38925ft 502kts
03-Jun-18 05:47 43.218832 -63.354678 63 38893ft 503kts
03-Jun-18 05:48 43.265806 -63.173221 63 38873ft 504kts
03-Jun-18 05:49 43.312402 -62.991751 63 38849ft 505kts
03-Jun-18 05:50 43.358844 -62.809540 63 38859ft 506kts
03-Jun-18 05:51 43.405264 -62.625982 63 38856ft 508kts
03-Jun-18 05:52 43.451314 -62.442447 63 38850ft 508kts
03-Jun-18 05:53 43.497141 -62.258344 63 38834ft 509kts
03-Jun-18 05:54 43.542883 -62.073107 63 38848ft 510kts
03-Jun-18 05:55 43.588258 -61.887872 63 38847ft 510kts
03-Jun-18 05:56 43.633386 -61.702110 64 38842ft 512kts
03-Jun-18 05:57 43.678436 -61.515206 64 38852ft 513kts
03-Jun-18 05:58 43.723154 -61.328078 65 38868ft 514kts
03-Jun-18 05:59 43.767863 -61.139438 65 38898ft 516kts
03-Jun-18 06:00 43.812272 -60.950445 65 38885ft 518kts
03-Jun-18 06:01 43.856543 -60.760438 66 38874ft 520kts
03-Jun-18 06:02 43.900784 -60.568936 66 38877ft 521kts
03-Jun-18 06:03 43.944644 -60.377370 66 38880ft 522kts
03-Jun-18 06:04 43.988283 -60.185042 67 38866ft 523kts
03-Jun-18 06:05 44.031814 -59.991634 67 38865ft 523kts
03-Jun-18 06:06 44.074872 -59.798473 67 38875ft 524kts
03-Jun-18 06:07 44.117581 -59.605096 67 38874ft 524kts
03-Jun-18 06:08 44.160194 -59.410516 68 38863ft 524kts
03-Jun-18 06:09 44.202398 -59.215951 68 38869ft 525kts
03-Jun-18 06:10 44.244437 -59.020324 69 38878ft 526kts
03-Jun-18 06:11 44.286130 -58.824489 69 38871ft 528kts
03-Jun-18 06:12 44.327612 -58.627785 69 38861ft 530kts
03-Jun-18 06:13 44.369048 -58.429378 70 38867ft 531kts
03-Jun-18 06:14 44.410072 -58.231072 70 38893ft 532kts
03-Jun-18 06:15 44.450827 -58.032077 70 38882ft 533kts
03-Jun-18 06:16 44.491425 -57.831865 71 38882ft 534kts
03-Jun-18 06:17 44.531587 -57.631811 71 38886ft 534kts
03-Jun-18 06:18 44.571410 -57.431439 72 38873ft 534kts
03-Jun-18 06:19 44.611036 -57.230021 72 38861ft 535kts
03-Jun-18 06:20 44.650228 -57.028728 72 38865ft 535kts
03-Jun-18 06:21 44.689177 -56.826544 73 38856ft 536kts
03-Jun-18 06:22 44.727714 -56.624446 73 38841ft 536kts
03-Jun-18 06:23 44.765920 -56.421917 73 38842ft 536kts
03-Jun-18 06:24 44.803922 -56.218286 73 38841ft 537kts
03-Jun-18 06:25 44.841455 -56.014977 74 38789ft 537kts
03-Jun-18 06:26 44.878665 -55.811224 74 38755ft 538kts
03-Jun-18 06:27 44.915657 -55.606304 75 38759ft 538kts
03-Jun-18 06:28 44.952185 -55.401734 75 38761ft 538kts
03-Jun-18 06:29 44.988381 -55.196731 75 38744ft 539kts
03-Jun-18 06:30 45.024327 -54.990686 75 38743ft 539kts
03-Jun-18 06:31 45.059831 -54.784950 76 38750ft 539kts
03-Jun-18 06:32 45.095105 -54.578061 76 38739ft 540kts
03-Jun-18 06:33 45.129908 -54.371507 76 38727ft 540kts
03-Jun-18 06:34 45.164322 -54.164788 76 38732ft 540kts
03-Jun-18 06:35 45.198479 -53.957143 77 38734ft 540kts
03-Jun-18 06:36 45.232214 -53.749520 77 38717ft 541kts
03-Jun-18 06:37 45.265601 -53.541270 77 38714ft 542kts
03-Jun-18 06:38 45.298788 -53.331991 77 38720ft 542kts
03-Jun-18 06:39 45.331514 -53.122789 78 38711ft 544kts
03-Jun-18 06:40 45.363938 -52.912841 78 38692ft 545kts
03-Jun-18 06:41 45.396150 -52.701459 78 38645ft 546kts
03-Jun-18 06:42 45.427913 -52.490342 78 38684ft 546kts
03-Jun-18 06:43 45.459386 -52.278208 78 38672ft 546kts
03-Jun-18 06:44 45.490484 -52.066852 77 38679ft 545kts
03-Jun-18 06:45 45.541525 -51.863631 63 38640ft 547kts
03-Jun-18 06:46 45.603585 -51.664958 66 38649ft 547kts
03-Jun-18 06:47 45.664561 -51.465705 66 38644ft 548kts
03-Jun-18 06:48 45.725243 -51.265582 66 38634ft 549kts
03-Jun-18 06:49 45.785966 -51.063877 66 38640ft 551kts
03-Jun-18 06:50 45.846296 -50.861851 66 38646ft 553kts
03-Jun-18 06:51 45.906381 -50.659002 66 38639ft 554kts
03-Jun-18 06:52 45.966430 -50.454601 66 38634ft 554kts
03-Jun-18 06:53 46.025795 -50.250862 66 38645ft 553kts
03-Jun-18 06:54 46.084949 -50.046161 66 38647ft 552kts
03-Jun-18 06:55 46.143509 -49.841818 66 38638ft 552kts
03-Jun-18 06:56 46.201673 -49.637141 66 38644ft 551kts
03-Jun-18 06:57 46.259479 -49.431991 66 38655ft 550kts
03-Jun-18 06:58 46.316581 -49.227656 66 38650ft 547kts
03-Jun-18 06:59 46.373068 -49.023789 66 38645ft 545kts
03-Jun-18 07:00 46.429232 -48.819344 66 38658ft 544kts
03-Jun-18 07:01 46.484769 -48.615445 66 38662ft 543kts
03-Jun-18 07:02 46.539875 -48.411401 66 38655ft 543kts
03-Jun-18 07:03 46.594779 -48.206323 66 38659ft 543kts
03-Jun-18 07:04 46.649101 -48.001648 66 38673ft 543kts
03-Jun-18 07:05 46.703198 -47.796005 66 38672ft 542kts
03-Jun-18 07:06 46.756578 -47.591332 66 38665ft 540kts
03-Jun-18 07:07 46.809436 -47.386821 67 38677ft 538kts
03-Jun-18 07:08 46.861988 -47.181730 67 38686ft 537kts
03-Jun-18 07:09 46.913786 -46.977710 67 38680ft 536kts
03-Jun-18 07:10 46.965184 -46.773466 67 38704ft 535kts
03-Jun-18 07:11 47.016277 -46.568593 67 38704ft 534kts
03-Jun-18 07:12 47.066717 -46.364517 67 38700ft 533kts
03-Jun-18 07:13 47.116872 -46.159681 68 38724ft 532kts
03-Jun-18 07:14 47.166411 -45.955562 68 38724ft 530kts
03-Jun-18 07:15 47.215446 -45.751611 68 38720ft 529kts
03-Jun-18 07:16 47.264146 -45.547174 68 38733ft 528kts
03-Jun-18 07:17 47.312302 -45.343140 69 38699ft 528kts
03-Jun-18 07:18 47.360107 -45.138674 69 38709ft 528kts
03-Jun-18 07:19 47.407658 -44.933371 69 38719ft 527kts
03-Jun-18 07:20 47.454640 -44.728566 70 38714ft 527kts
03-Jun-18 07:21 47.501215 -44.523591 70 38714ft 526kts
03-Jun-18 07:22 47.547501 -44.317922 71 38728ft 524kts
03-Jun-18 07:23 47.593056 -44.113487 71 38731ft 523kts
03-Jun-18 07:24 47.638293 -43.908519 71 38723ft 521kts
03-Jun-18 07:25 47.682939 -43.704229 71 38732ft 521kts
03-Jun-18 07:26 47.727236 -43.499526 72 38745ft 521kts
03-Jun-18 07:27 47.771319 -43.293742 72 38740ft 522kts
03-Jun-18 07:28 47.814939 -43.088090 72 38739ft 522kts
03-Jun-18 07:29 47.858215 -42.881985 72 38754ft 522kts
03-Jun-18 07:30 47.901243 -42.674924 73 38756ft 521kts
03-Jun-18 07:31 47.943647 -42.468762 73 38750ft 520kts
03-Jun-18 07:32 47.985616 -42.262584 73 38759ft 519kts
03-Jun-18 07:33 48.020299 -42.090547 74 38768ft 518kts
03-Jun-18 07:34 48.061412 -41.884653 74 38753ft 517kts
03-Jun-18 07:35 48.102110 -41.678670 74 38724ft 517kts
03-Jun-18 07:36 48.142504 -41.472030 74 38733ft 516kts
03-Jun-18 07:37 48.182312 -41.266179 74 38745ft 514kts
03-Jun-18 07:38 48.221767 -41.059927 75 38759ft 513kts
03-Jun-18 07:39 48.260642 -40.854481 75 38799ft 512kts
03-Jun-18 07:40 48.299104 -40.648952 75 38826ft 512kts
03-Jun-18 07:41 48.337347 -40.442357 75 38826ft 512kts
03-Jun-18 07:42 48.375110 -40.236029 75 38821ft 513kts
03-Jun-18 07:43 48.412667 -40.028431 76 38835ft 513kts
03-Jun-18 07:44 48.449747 -39.821236 76 38843ft 513kts
03-Jun-18 07:45 48.486609 -39.612772 76 38833ft 518kts
03-Jun-18 07:46 48.523450 -39.402010 76 38844ft 519kts
03-Jun-18 07:47 48.559783 -39.191612 76 38854ft 518kts
03-Jun-18 07:48 48.595810 -38.980465 77 38850ft 518kts
03-Jun-18 07:49 48.631277 -38.770059 77 38848ft 517kts
03-Jun-18 07:50 48.666334 -38.559500 77 38863ft 517kts
03-Jun-18 07:51 48.701115 -38.347996 78 38866ft 516kts
03-Jun-18 07:52 48.735370 -38.137068 78 38859ft 516kts
03-Jun-18 07:53 48.769230 -37.925868 78 38866ft 516kts
03-Jun-18 07:54 48.802790 -37.713972 78 38878ft 515kts
03-Jun-18 07:55 48.835757 -37.502972 78 38875ft 514kts
03-Jun-18 07:56 48.868291 -37.292059 79 38870ft 513kts
03-Jun-18 07:57 48.900469 -37.080534 79 38885ft 512kts
03-Jun-18 07:58 48.932139 -36.869815 79 38911ft 511kts
03-Jun-18 07:59 48.963474 -36.658343 79 38909ft 511kts
03-Jun-18 08:00 48.994271 -36.447655 80 38904ft 510kts
03-Jun-18 08:01 49.024629 -36.237100 80 38916ft 509kts
03-Jun-18 08:02 49.054578 -36.026480 80 38923ft 509kts
03-Jun-18 08:03 49.084166 -35.815457 80 38919ft 507kts
03-Jun-18 08:04 49.113184 -35.605468 81 38916ft 506kts
03-Jun-18 08:05 49.141745 -35.395853 81 38929ft 505kts
03-Jun-18 08:06 49.170006 -35.185392 81 38933ft 504kts
03-Jun-18 08:07 49.197749 -34.975707 81 38925ft 503kts
03-Jun-18 08:08 49.225144 -34.765547 81 38931ft 502kts
03-Jun-18 08:09 49.252008 -34.556327 82 38943ft 501kts
03-Jun-18 08:10 49.278413 -34.347484 82 38940ft 499kts
03-Jun-18 08:11 49.304377 -34.138981 82 38934ft 498kts
03-Jun-18 08:12 49.329981 -33.930064 82 38943ft 497kts
03-Jun-18 08:13 49.355090 -33.722014 82 38963ft 496kts
03-Jun-18 08:14 49.379840 -33.513634 83 38993ft 495kts
03-Jun-18 08:15 49.404128 -33.305767 83 38990ft 495kts
03-Jun-18 08:16 49.428047 -33.097658 83 38985ft 495kts
03-Jun-18 08:17 49.451656 -32.888771 83 38997ft 495kts
03-Jun-18 08:18 49.474785 -32.680631 83 39003ft 494kts
03-Jun-18 08:19 49.497486 -32.472704 83 38996ft 493kts
03-Jun-18 08:20 49.519858 -32.264344 84 38997ft 492kts
03-Jun-18 08:21 49.541714 -32.057074 84 39010ft 491kts
03-Jun-18 08:22 49.563142 -31.850040 84 39009ft 490kts
03-Jun-18 08:23 49.584272 -31.642297 84 39000ft 490kts
03-Jun-18 08:24 49.604977 -31.434923 84 39029ft 490kts
03-Jun-18 08:25 49.625308 -31.227238 84 39024ft 491kts
03-Jun-18 08:26 49.645396 -31.018236 84 39052ft 491kts
03-Jun-18 08:27 49.665036 -30.809709 84 39119ft 492kts
03-Jun-18 08:28 49.684349 -30.600545 84 39143ft 492kts
03-Jun-18 08:29 49.703330 -30.390624 84 39141ft 493kts
03-Jun-18 08:30 49.721900 -30.180973 85 39132ft 493kts
03-Jun-18 08:31 49.740080 -29.971295 85 39138ft 493kts
03-Jun-18 08:32 49.757944 -29.760687 85 39146ft 493kts
03-Jun-18 08:33 49.775384 -29.550466 85 39155ft 493kts
03-Jun-18 08:34 49.792446 -29.340009 85 39145ft 494kts
03-Jun-18 08:35 49.809218 -29.128307 85 39145ft 495kts
03-Jun-18 08:36 49.825562 -28.916810 85 39156ft 496kts
03-Jun-18 08:37 49.841580 -28.704558 85 39153ft 497kts
03-Jun-18 08:38 49.857312 -28.490880 85 39144ft 498kts
03-Jun-18 08:39 49.872613 -28.277419 85 39151ft 499kts
03-Jun-18 08:40 49.887555 -28.063476 85 39160ft 500kts
03-Jun-18 08:41 49.902158 -27.848501 85 39152ft 500kts
03-Jun-18 08:42 49.916320 -27.634050 85 39146ft 500kts
03-Jun-18 08:43 49.930096 -27.419349 85 39156ft 501kts
03-Jun-18 08:44 49.943541 -27.203437 85 39143ft 501kts
03-Jun-18 08:45 49.956548 -26.987837 85 39167ft 503kts
03-Jun-18 08:46 49.969228 -26.771327 85 39216ft 504kts
03-Jun-18 08:47 49.981550 -26.553406 85 39206ft 506kts
03-Jun-18 08:48 49.993473 -26.335641 85 39216ft 507kts
03-Jun-18 08:49 50.005003 -26.117262 85 39220ft 508kts
03-Jun-18 08:50 50.016170 -25.897768 85 39210ft 508kts
03-Jun-18 08:51 50.026905 -25.678664 85 39211ft 509kts
03-Jun-18 08:52 50.037227 -25.459387 85 39229ft 509kts
03-Jun-18 08:53 50.047177 -25.239137 85 39223ft 510kts
03-Jun-18 08:54 50.056689 -25.019262 85 39190ft 510kts
03-Jun-18 08:55 50.065806 -24.798844 85 39148ft 511kts
03-Jun-18 08:56 50.074551 -24.577134 85 39155ft 512kts
03-Jun-18 08:57 50.082862 -24.355656 85 39145ft 514kts
03-Jun-18 08:58 50.090762 -24.133811 85 39140ft 514kts
03-Jun-18 08:59 50.098276 -23.910734 85 39150ft 515kts
03-Jun-18 09:00 50.105346 -23.688140 86 39148ft 515kts
03-Jun-18 09:01 50.111984 -23.465665 86 39147ft 515kts
03-Jun-18 09:02 50.118218 -23.242513 86 39166ft 514kts
03-Jun-18 09:03 50.123997 -23.020212 86 39167ft 514kts
03-Jun-18 09:04 50.129337 -22.798042 86 39143ft 514kts
03-Jun-18 09:05 50.134296 -22.574950 86 39108ft 514kts
03-Jun-18 09:06 50.138800 -22.352515 86 39133ft 514kts
03-Jun-18 09:07 50.142878 -22.129968 86 39128ft 515kts
03-Jun-18 09:08 50.146557 -21.906168 86 39117ft 515kts
03-Jun-18 09:09 50.149778 -21.683184 86 39123ft 515kts
03-Jun-18 09:10 50.152586 -21.460288 87 39130ft 514kts
03-Jun-18 09:11 50.154976 -21.237154 87 39118ft 513kts
03-Jun-18 09:12 50.156906 -21.015350 87 39114ft 511kts
03-Jun-18 09:13 50.158426 -20.794077 87 39123ft 511kts
03-Jun-18 09:14 50.159540 -20.572272 87 39121ft 510kts
03-Jun-18 09:15 50.160209 -20.351466 87 39110ft 509kts
03-Jun-18 09:16 50.160458 -20.130701 88 39113ft 509kts
03-Jun-18 09:17 50.160294 -19.909380 88 39120ft 509kts
03-Jun-18 09:18 50.159712 -19.688702 88 39111ft 509kts
03-Jun-18 09:19 50.158717 -19.468263 88 39105ft 508kts
03-Jun-18 09:20 50.157298 -19.247561 89 39113ft 507kts
03-Jun-18 09:21 50.155472 -19.027979 89 39115ft 506kts
03-Jun-18 09:22 50.153236 -18.808959 89 39103ft 505kts
03-Jun-18 09:23 50.150586 -18.589677 89 39105ft 504kts
03-Jun-18 09:24 50.147547 -18.371637 90 39114ft 504kts
03-Jun-18 09:25 50.144089 -18.153566 90 39107ft 504kts
03-Jun-18 09:26 50.140212 -17.934682 90 39098ft 504kts
03-Jun-18 09:27 50.135947 -17.716827 90 39105ft 503kts
03-Jun-18 09:28 50.131267 -17.498984 90 39110ft 503kts
03-Jun-18 09:29 50.126174 -17.281084 90 39108ft 502kts
03-Jun-18 09:30 50.120713 -17.064305 91 39100ft 500kts
03-Jun-18 09:31 50.114859 -16.848314 91 39107ft 499kts
03-Jun-18 09:32 50.108610 -16.632132 91 39112ft 498kts
03-Jun-18 09:33 50.101987 -16.417194 91 39101ft 497kts
03-Jun-18 09:34 50.094979 -16.202611 91 39098ft 496kts
03-Jun-18 09:35 50.087552 -15.987502 91 39109ft 496kts
03-Jun-18 09:36 50.079768 -15.773304 91 39104ft 496kts
03-Jun-18 09:37 50.071583 -15.559189 92 39094ft 495kts
03-Jun-18 09:38 50.063000 -15.344950 92 39100ft 494kts
03-Jun-18 09:39 50.054071 -15.131951 92 39106ft 493kts
03-Jun-18 09:40 50.044762 -14.919241 93 39099ft 491kts
03-Jun-18 09:41 50.035133 -14.708108 93 39091ft 488kts
03-Jun-18 09:42 50.025179 -14.498228 93 39099ft 487kts
03-Jun-18 09:43 50.014831 -14.288225 93 39124ft 485kts
03-Jun-18 09:44 50.004182 -14.079662 93 39119ft 484kts
03-Jun-18 09:45 50.015212 -13.872416 80 39116ft 483kts
03-Jun-18 09:46 50.032763 -13.664720 82 39125ft 483kts
03-Jun-18 09:47 50.049968 -13.457769 82 39117ft 483kts
03-Jun-18 09:48 50.066740 -13.250806 82 39113ft 483kts
03-Jun-18 09:49 50.083210 -13.042899 82 39124ft 482kts
03-Jun-18 09:50 50.099230 -12.835859 82 39125ft 482kts
03-Jun-18 09:51 50.114923 -12.628143 83 39115ft 481kts
03-Jun-18 09:52 50.130173 -12.421292 83 39117ft 480kts
03-Jun-18 09:53 50.145025 -12.214685 83 39127ft 480kts
03-Jun-18 09:54 50.159553 -12.007386 83 39123ft 480kts
03-Jun-18 09:55 50.171336 -11.835139 84 39105ft 480kts
03-Jun-18 09:56 50.185139 -11.628315 84 39116ft 480kts
03-Jun-18 09:57 50.198620 -11.420668 84 39111ft 480kts
03-Jun-18 09:58 50.211686 -11.213686 84 39102ft 480kts
03-Jun-18 09:59 50.224398 -11.006315 84 39109ft 480kts
03-Jun-18 10:00 50.238795 -10.763686 85 39117ft 480kts
03-Jun-18 10:01 50.250697 -10.556262 85 39115ft 480kts
03-Jun-18 10:02 50.260366 -10.382690 85 39104ft 479kts
03-Jun-18 10:03 50.273407 -10.140760 85 39109ft 479kts
03-Jun-18 10:04 50.284184 -9.933323 85 39116ft 479kts
03-Jun-18 10:05 50.294625 -9.725082 85 39106ft 479kts
03-Jun-18 10:06 50.304662 -9.517470 86 39099ft 479kts
03-Jun-18 10:07 50.312739 -9.344478 86 39109ft 479kts
03-Jun-18 10:08 50.322121 -9.136183 86 39098ft 479kts
03-Jun-18 10:09 50.331106 -8.928373 86 39092ft 479kts
03-Jun-18 10:10 50.339738 -8.720035 86 39101ft 478kts
03-Jun-18 10:11 50.347964 -8.512635 87 39101ft 478kts
03-Jun-18 10:12 50.355802 -8.305370 87 39078ft 477kts
03-Jun-18 10:13 50.363291 -8.097589 87 39086ft 476kts
03-Jun-18 10:14 50.373589 -7.891159 84 39083ft 476kts
03-Jun-18 10:15 50.386885 -7.684838 85 39072ft 476kts
03-Jun-18 10:16 50.399693 -7.477647 85 39076ft 477kts
03-Jun-18 10:17 50.412098 -7.270775 85 39083ft 478kts
03-Jun-18 10:18 50.424186 -7.062755 85 39069ft 478kts
03-Jun-18 10:19 50.435904 -6.854891 85 39045ft 479kts
03-Jun-18 10:20 50.447261 -6.646732 85 39050ft 480kts
03-Jun-18 10:21 50.458290 -6.437632 86 39059ft 480kts
03-Jun-18 10:22 50.468913 -6.229028 86 39058ft 480kts
03-Jun-18 10:23 50.479159 -6.020423 86 39045ft 480kts
03-Jun-18 10:24 50.489075 -5.810715 86 39046ft 481kts
03-Jun-18 10:25 50.498606 -5.601317 86 39055ft 481kts
03-Jun-18 10:26 50.507791 -5.391101 86 39045ft 482kts
03-Jun-18 10:27 50.516566 -5.181213 87 39036ft 482kts
03-Jun-18 10:28 50.524987 -4.970939 87 39045ft 483kts
03-Jun-18 10:29 50.533072 -4.759544 87 39048ft 484kts
03-Jun-18 10:30 50.540747 -4.548592 87 39036ft 484kts
03-Jun-18 10:31 50.548049 -4.337560 87 39040ft 484kts
03-Jun-18 10:32 50.554996 -4.125611 87 39050ft 484kts
03-Jun-18 10:33 50.561525 -3.914400 88 39041ft 484kts
03-Jun-18 10:34 50.567709 -3.702090 88 39035ft 485kts
03-Jun-18 10:35 50.574275 -3.490432 83 39042ft 485kts
03-Jun-18 10:36 50.607991 -3.285210 73 39040ft 487kts
03-Jun-18 10:37 50.646537 -3.079860 74 39035ft 489kts
03-Jun-18 10:38 50.684695 -2.874263 74 39044ft 489kts
03-Jun-18 10:39 50.722554 -2.668021 74 39046ft 490kts
03-Jun-18 10:40 50.760243 -2.460658 74 39034ft 490kts
03-Jun-18 10:41 50.797395 -2.253682 74 39044ft 490kts
03-Jun-18 10:42 50.834191 -2.046000 74 39048ft 491kts
03-Jun-18 10:43 50.870753 -1.837281 75 39038ft 491kts
03-Jun-18 10:44 50.906853 -1.628757 75 39037ft 492kts
03-Jun-18 10:45 50.942709 -1.419155 75 39047ft 492kts
03-Jun-18 10:46 50.974490 -1.208262 78 39041ft 492kts
03-Jun-18 10:47 51.003693 -0.996294 78 39035ft 492kts
03-Jun-18 10:48 51.037182 -0.785783 63 39034ft 491kts
03-Jun-18 10:49 51.126056 -0.622840 43 39041ft 492kts
03-Jun-18 10:50 51.235379 -0.493793 23 39055ft 491kts
03-Jun-18 10:51 51.361442 -0.404939 26 39035ft 497kts
03-Jun-18 10:52 51.486116 -0.309549 25 39044ft 498kts
03-Jun-18 10:53 51.611507 -0.213451 25 39058ft 498kts
03-Jun-18 10:54 51.711647 -0.062727 56 39076ft 502kts
03-Jun-18 10:55 51.772890 0.137107 80 39059ft 501kts
03-Jun-18 10:56 51.787781 0.361038 82 39063ft 499kts
03-Jun-18 10:57 51.805782 0.582973 83 39074ft 498kts
03-Jun-18 10:58 51.822795 0.804806 83 39077ft 498kts
03-Jun-18 10:59 51.839586 1.027204 83 39064ft 497kts
03-Jun-18 11:00 51.867627 1.245474 71 39072ft 497kts
03-Jun-18 11:01 51.911978 1.458358 72 39077ft 499kts
03-Jun-18 11:02 51.954831 1.671875 72 39073ft 499kts
03-Jun-18 11:03 51.997564 1.886752 72 39065ft 499kts
03-Jun-18 11:04 52.039745 2.101238 72 39085ft 499kts
03-Jun-18 11:05 52.081562 2.316246 73 39083ft 495kts
03-Jun-18 11:06 52.127957 2.525553 63 39074ft 492kts
03-Jun-18 11:07 52.197766 2.716841 60 39073ft 492kts
03-Jun-18 11:08 52.266923 2.909991 60 39074ft 492kts
03-Jun-18 11:09 52.335653 3.102761 60 39076ft 491kts
03-Jun-18 11:10 52.404038 3.296063 60 39069ft 491kts
03-Jun-18 11:11 52.459830 3.498752 75 37673ft 478kts
03-Jun-18 11:12 52.489030 3.709142 77 35746ft 467kts
03-Jun-18 11:13 52.518267 3.914943 78 33977ft 456kts
03-Jun-18 11:14 52.525400 4.118512 92 32121ft 440kts
03-Jun-18 11:15 52.524295 4.316482 92 30014ft 427kts
03-Jun-18 11:16 52.523150 4.508823 92 27680ft 412kts
03-Jun-18 11:17 52.521750 4.693195 92 25152ft 396kts
03-Jun-18 11:18 52.520152 4.869974 92 22405ft 379kts
03-Jun-18 11:19 52.518354 5.040161 92 19645ft 364kts
03-Jun-18 11:20 52.516404 5.203276 92 17000ft 351kts
03-Jun-18 11:21 52.514311 5.360800 91 14586ft 338kts
03-Jun-18 11:22 52.512122 5.510646 91 12957ft 306kts
03-Jun-18 11:23 52.473987 5.603828 185 11963ft 271kts
03-Jun-18 11:24 52.441320 5.514391 264 10718ft 238kts
03-Jun-18 11:25 52.430300 5.407325 256 9138ft 238kts
03-Jun-18 11:26 52.415880 5.301787 257 8548ft 237kts
03-Jun-18 11:27 52.401755 5.196622 257 7950ft 234kts
03-Jun-18 11:28 52.387781 5.093156 257 7351ft 232kts
03-Jun-18 11:29 52.374256 4.993690 257 6747ft 213kts
03-Jun-18 11:30 52.361526 4.900692 257 6148ft 206kts
03-Jun-18 11:31 52.349013 4.809795 257 5548ft 204kts
03-Jun-18 11:32 52.336491 4.719485 257 4947ft 202kts
03-Jun-18 11:33 52.330691 4.628853 270 4350ft 201kts
03-Jun-18 11:34 52.329897 4.537829 270 3747ft 199kts
03-Jun-18 11:35 52.328897 4.447155 270 3145ft 198kts
03-Jun-18 11:36 52.317145 4.364175 208 2500ft 198kts
03-Jun-18 11:37 52.269301 4.362071 178 1970ft 144kts
03-Jun-18 11:38 52.231039 4.370905 135 1963ft 142kts
03-Jun-18 11:39 52.216269 4.430342 111 2004ft 141kts
03-Jun-18 11:40 52.207680 4.491661 88 2013ft 140kts
03-Jun-18 11:41 52.217757 4.551193 57 2016ft 140kts
03-Jun-18 11:42 52.238091 4.604727 54 1856ft 138kts
03-Jun-18 11:43 52.258347 4.657298 54 1122ft 134kts
03-Jun-18 11:44 52.278069 4.708526 54 415ft 132kts
03-Jun-18 11:45 52.295320 4.753411 57 18ft 61kts
03-Jun-18 11:46 52.301347 4.763602 57 18ft 21kts
03-Jun-18 11:47 52.304465 4.767239 336 18ft 0kts
03-Jun-18 11:48 52.304479 4.767226 332 18ft 0kts

Navigation Log

Ident Type
Flight plan parsing failed, navigation log unavailable